createdAt,value
2022-11-10T00:00:54.648Z,10.53
2022-11-10T00:03:22.721Z,9.77
2022-11-10T00:05:50.008Z,8.17
2022-11-10T00:08:17.531Z,13.07
2022-11-10T00:10:53.797Z,13.00
2022-11-10T00:13:21.551Z,8.17
2022-11-10T00:16:06.973Z,10.27
2022-11-10T00:18:34.508Z,9.67
2022-11-10T00:21:02.821Z,8.13
2022-11-10T00:23:30.346Z,8.07
2022-11-10T00:25:58.638Z,7.03
2022-11-10T00:28:26.184Z,10.10
2022-11-10T00:30:54.497Z,9.77
2022-11-10T00:33:22.381Z,6.93
2022-11-10T00:35:49.574Z,15.17
2022-11-10T00:38:18.163Z,9.07
2022-11-10T00:40:46.466Z,9.63
2022-11-10T00:43:14.001Z,12.23
2022-11-10T00:45:45.023Z,12.27
2022-11-10T00:48:12.571Z,24.53
2022-11-10T00:50:40.091Z,30.70
2022-11-10T00:53:07.645Z,18.50
2022-11-10T00:55:35.181Z,9.40
2022-11-10T00:58:02.717Z,8.03
2022-11-10T01:00:30.298Z,5.67
2022-11-10T01:02:57.827Z,11.10
2022-11-10T01:05:25.387Z,7.93
2022-11-10T01:07:52.982Z,11.57
2022-11-10T01:10:20.508Z,13.55
2022-11-10T01:12:48.054Z,21.97
2022-11-10T01:15:15.586Z,17.07
2022-11-10T01:17:43.121Z,41.35
2022-11-10T01:20:10.852Z,26.10
2022-11-10T01:22:39.174Z,21.90
2022-11-10T01:25:06.759Z,31.07
2022-11-10T01:27:34.307Z,26.10
2022-11-10T01:30:01.860Z,24.80
2022-11-10T01:32:29.402Z,30.60
2022-11-10T01:34:56.931Z,36.07
2022-11-10T01:37:25.259Z,30.70
2022-11-10T01:39:52.816Z,19.33
2022-11-10T01:42:23.008Z,35.50
2022-11-10T01:45:25.207Z,27.33
2022-11-10T01:47:55.217Z,44.10
2022-11-10T01:50:22.770Z,41.40
2022-11-10T01:52:50.315Z,23.80
2022-11-10T01:55:17.869Z,38.63
2022-11-10T01:57:46.165Z,23.80
2022-11-10T02:00:13.797Z,23.27
2022-11-10T02:02:42.110Z,36.60
2022-11-10T02:05:09.693Z,23.15
2022-11-10T02:07:37.249Z,28.40
2022-11-10T02:10:04.880Z,19.23
2022-11-10T02:12:38.109Z,54.90
2022-11-10T02:15:05.709Z,45.10
2022-11-10T02:17:33.247Z,44.20
2022-11-10T02:20:00.780Z,26.00
2022-11-10T02:22:28.332Z,14.93
2022-11-10T02:24:55.860Z,13.53
2022-11-10T02:27:23.384Z,10.47
2022-11-10T02:29:51.708Z,18.37
2022-11-10T02:32:19.255Z,23.60
2022-11-10T02:34:46.805Z,26.17
2022-11-10T02:37:14.359Z,20.03
2022-11-10T02:39:41.893Z,52.03
2022-11-10T02:42:09.439Z,27.40
2022-11-10T02:44:39.611Z,48.60
2022-11-10T02:47:07.136Z,20.87
2022-11-10T02:49:35.443Z,67.20
2022-11-10T02:52:03.045Z,61.03
2022-11-10T02:54:30.569Z,59.17
2022-11-10T02:56:58.112Z,43.93
2022-11-10T02:59:25.657Z,44.57
2022-11-10T03:01:53.949Z,51.03
2022-11-10T03:04:21.487Z,38.60
2022-11-10T03:06:49.823Z,24.80
2022-11-10T03:09:17.338Z,13.07
2022-11-10T03:11:45.645Z,36.00
2022-11-10T03:14:13.190Z,57.50
2022-11-10T03:16:40.723Z,65.47
2022-11-10T03:19:09.046Z,38.23
2022-11-10T03:21:36.621Z,28.83
2022-11-10T03:24:04.164Z,24.33
2022-11-10T03:26:31.707Z,24.77
2022-11-10T03:28:59.254Z,26.37
2022-11-10T03:31:26.801Z,33.00
2022-11-10T03:33:54.334Z,25.40
2022-11-10T03:36:21.909Z,25.70
2022-11-10T03:38:50.211Z,23.70
2022-11-10T03:41:19.756Z,40.50
2022-11-10T03:43:45.291Z,14.53
2022-11-10T03:46:12.835Z,25.63
2022-11-10T03:48:40.360Z,27.03
2022-11-10T03:51:07.925Z,32.80
2022-11-10T03:53:35.449Z,27.33
2022-11-10T03:56:03.765Z,25.10
2022-11-10T03:58:31.348Z,23.50
2022-11-10T04:00:58.878Z,56.20
2022-11-10T04:03:26.403Z,32.67
2022-11-10T04:06:12.669Z,27.60
2022-11-10T04:08:58.527Z,56.43
2022-11-10T04:11:44.237Z,46.60
2022-11-10T04:14:30.212Z,35.27
2022-11-10T04:16:57.779Z,29.30
2022-11-10T04:19:25.313Z,39.80
2022-11-10T04:21:52.848Z,28.80
2022-11-10T04:24:21.171Z,28.37
2022-11-10T04:26:48.772Z,28.33
2022-11-10T04:29:16.251Z,33.93
2022-11-10T04:31:44.215Z,38.67
2022-11-10T04:34:11.707Z,37.33
2022-11-10T04:36:39.253Z,25.95
2022-11-10T04:39:07.202Z,21.97
2022-11-10T04:41:34.736Z,26.30
2022-11-10T04:44:03.040Z,26.35
2022-11-10T04:46:36.101Z,13.50
2022-11-10T04:49:04.421Z,20.60
2022-11-10T04:51:31.979Z,8.50
2022-11-10T04:54:00.243Z,7.37
2022-11-10T04:56:27.781Z,10.43
2022-11-10T04:58:56.078Z,11.63
2022-11-10T05:01:23.711Z,12.43
2022-11-10T05:03:51.169Z,18.03
2022-11-10T05:06:19.480Z,24.33
2022-11-10T05:08:47.055Z,14.07
2022-11-10T05:11:14.593Z,14.93
2022-11-10T05:13:42.129Z,14.33
2022-11-10T05:16:10.479Z,14.70
2022-11-10T05:18:38.024Z,18.00
2022-11-10T05:21:05.549Z,12.10
2022-11-10T05:23:39.353Z,12.10
2022-11-10T05:26:06.830Z,9.90
2022-11-10T05:28:34.364Z,11.90
2022-11-10T05:31:02.036Z,19.13
2022-11-10T05:33:29.572Z,19.20
2022-11-10T05:35:57.109Z,19.33
2022-11-10T05:38:24.661Z,21.33
2022-11-10T05:40:52.186Z,19.90
2022-11-10T05:43:19.964Z,16.27
2022-11-10T05:45:47.274Z,19.13
2022-11-10T05:48:14.809Z,8.57
2022-11-10T05:50:43.091Z,9.70
2022-11-10T05:53:11.405Z,10.70
2022-11-10T05:55:38.949Z,10.47
2022-11-10T05:58:06.475Z,7.33
2022-11-10T06:00:35.328Z,10.43
2022-11-10T06:03:02.950Z,9.20
2022-11-10T06:05:31.485Z,10.87
2022-11-10T06:07:58.266Z,7.00
2022-11-10T06:10:25.803Z,11.10
2022-11-10T06:12:53.337Z,9.37
2022-11-10T06:15:22.088Z,11.43
2022-11-10T06:17:49.606Z,15.87
2022-11-10T06:20:17.914Z,10.30
2022-11-10T06:22:45.507Z,10.83
2022-11-10T06:25:13.032Z,11.43
2022-11-10T06:27:40.587Z,16.83
2022-11-10T06:30:08.506Z,13.60
2022-11-10T06:32:36.041Z,12.90
2022-11-10T06:35:03.565Z,16.15
2022-11-10T06:37:31.159Z,12.63
2022-11-10T06:39:58.675Z,13.60
2022-11-10T06:42:26.968Z,14.03
2022-11-10T06:44:54.572Z,16.40
2022-11-10T06:47:22.124Z,15.93
2022-11-10T06:49:49.728Z,23.17
2022-11-10T06:52:18.190Z,18.53
2022-11-10T06:54:45.694Z,15.93
2022-11-10T06:57:13.229Z,22.40
2022-11-10T06:59:41.561Z,20.60
2022-11-10T07:02:09.106Z,28.50
2022-11-10T07:04:36.651Z,21.03
2022-11-10T07:07:04.545Z,21.90
2022-11-10T07:09:32.044Z,17.63
2022-11-10T07:12:00.359Z,18.23
2022-11-10T07:14:27.943Z,22.13
2022-11-10T07:16:55.465Z,15.93
2022-11-10T07:19:23.006Z,20.50
2022-11-10T07:21:51.337Z,18.40
2022-11-10T07:24:18.883Z,15.70
2022-11-10T07:26:46.420Z,14.90
2022-11-10T07:29:13.991Z,15.17
2022-11-10T07:31:41.535Z,12.37
2022-11-10T07:34:09.079Z,14.60
2022-11-10T07:36:36.646Z,15.43
2022-11-10T07:39:04.170Z,13.70
2022-11-10T07:41:31.712Z,17.00
2022-11-10T07:43:59.308Z,12.80
2022-11-10T07:46:27.611Z,13.02
2022-11-10T07:48:55.145Z,12.30
2022-11-10T07:51:23.753Z,11.77
2022-11-10T07:53:51.291Z,12.50
2022-11-10T07:56:19.592Z,11.10
2022-11-10T07:58:47.164Z,9.87
2022-11-10T08:01:14.737Z,8.87
2022-11-10T08:03:45.830Z,12.80
2022-11-10T08:06:14.228Z,11.27
2022-11-10T08:08:41.716Z,12.70
2022-11-10T08:11:09.273Z,16.02
2022-11-10T08:13:36.863Z,16.02
2022-11-10T08:16:04.407Z,14.07
2022-11-10T08:18:35.241Z,19.00
2022-11-10T08:21:02.159Z,10.67
2022-11-10T08:23:29.696Z,12.37
2022-11-10T08:26:00.145Z,12.43
2022-11-10T08:28:27.729Z,15.27
2022-11-10T08:30:55.308Z,13.73
2022-11-10T08:33:23.264Z,15.85
2022-11-10T08:35:51.266Z,13.37
2022-11-10T08:38:19.541Z,11.67
2022-11-10T08:40:47.834Z,13.87
2022-11-10T08:43:15.418Z,13.93
2022-11-10T08:45:42.955Z,12.20
2022-11-10T08:48:10.488Z,10.87
2022-11-10T08:50:38.840Z,13.60
2022-11-10T08:53:06.399Z,14.73
2022-11-10T08:55:33.900Z,11.33
2022-11-10T08:58:01.502Z,13.43
2022-11-10T09:00:29.078Z,11.40
2022-11-10T09:02:56.564Z,12.77
2022-11-10T09:05:24.905Z,13.43
2022-11-10T09:07:52.449Z,12.80
2022-11-10T09:10:19.984Z,11.93
2022-11-10T09:12:47.560Z,14.63
2022-11-10T09:15:15.083Z,13.83
2022-11-10T09:17:42.610Z,14.57
2022-11-10T09:20:10.365Z,18.43
2022-11-10T09:22:37.823Z,20.50
2022-11-10T09:25:05.388Z,19.43
2022-11-10T09:27:37.371Z,21.07
2022-11-10T09:30:05.782Z,17.58
2022-11-10T09:32:33.250Z,14.93
2022-11-10T09:35:00.851Z,12.30
2022-11-10T09:37:28.376Z,16.33
2022-11-10T09:40:01.012Z,18.90
2022-11-10T09:42:28.930Z,12.60
2022-11-10T09:44:59.371Z,12.03
2022-11-10T09:47:55.653Z,11.37
2022-11-10T09:49:57.185Z,13.93
2022-11-10T09:52:25.490Z,13.43
2022-11-10T09:55:23.420Z,12.10
2022-11-10T09:57:50.953Z,14.17
2022-11-10T10:00:18.517Z,12.73
2022-11-10T10:02:48.829Z,14.80
2022-11-10T10:05:28.228Z,14.53
2022-11-10T10:08:01.564Z,16.53
2022-11-10T10:10:34.632Z,14.27
2022-11-10T10:13:20.462Z,11.07
2022-11-10T10:16:08.790Z,10.50
2022-11-10T10:18:48.365Z,11.07
2022-11-10T10:21:31.448Z,12.93
2022-11-10T10:24:10.304Z,11.37
2022-11-10T10:26:30.286Z,11.17
2022-11-10T10:28:57.819Z,12.13
2022-11-10T10:31:25.420Z,16.33
2022-11-10T10:33:53.709Z,15.00
2022-11-10T10:36:23.939Z,16.30
2022-11-10T10:38:51.487Z,15.47
2022-11-10T10:41:24.547Z,12.90
2022-11-10T10:43:52.080Z,15.00
2022-11-10T10:46:22.371Z,15.37
2022-11-10T10:48:53.828Z,14.97
2022-11-10T10:51:29.387Z,19.47
2022-11-10T10:53:56.922Z,19.70
2022-11-10T10:56:24.466Z,20.37
2022-11-10T10:58:55.495Z,17.57
2022-11-10T11:01:32.865Z,19.30
2022-11-10T11:04:01.140Z,18.77
2022-11-10T11:06:28.685Z,20.37
2022-11-10T11:09:02.119Z,18.43
2022-11-10T11:11:33.194Z,19.58
2022-11-10T11:14:21.446Z,14.23
2022-11-10T11:16:57.743Z,15.70
2022-11-10T11:19:25.282Z,16.30
2022-11-10T11:21:58.633Z,13.07
2022-11-10T11:24:40.552Z,15.50
2022-11-10T11:27:26.431Z,14.80
2022-11-10T11:29:59.922Z,15.30
2022-11-10T11:33:01.009Z,17.03
2022-11-10T11:35:34.583Z,17.10
2022-11-10T11:38:10.871Z,12.87
2022-11-10T11:40:53.450Z,14.50
2022-11-10T11:43:23.812Z,17.47
2022-11-10T11:46:00.423Z,15.33
2022-11-10T11:48:30.636Z,21.30
2022-11-10T11:50:58.949Z,13.90
2022-11-10T11:53:44.552Z,15.60
2022-11-10T11:56:27.190Z,16.97
2022-11-10T11:59:03.705Z,16.60
2022-11-10T12:01:39.890Z,15.70
2022-11-10T12:04:25.251Z,12.73
2022-11-10T12:07:17.626Z,13.43
2022-11-10T12:09:45.910Z,14.00
2022-11-10T12:12:31.773Z,16.20
2022-11-10T12:15:04.965Z,14.30
2022-11-10T12:17:44.804Z,13.47
2022-11-10T12:20:15.098Z,12.30
2022-11-10T12:23:00.789Z,12.63
2022-11-10T12:25:46.904Z,11.57
2022-11-10T12:28:26.430Z,14.50
2022-11-10T12:30:57.631Z,15.57
2022-11-10T12:33:39.323Z,18.07
2022-11-10T12:36:06.909Z,14.53
2022-11-10T12:38:59.618Z,11.73
2022-11-10T12:41:20.220Z,15.50
2022-11-10T12:44:09.043Z,16.77
2022-11-10T12:46:36.636Z,14.00
2022-11-10T12:49:18.997Z,11.57
2022-11-10T12:51:46.564Z,13.30
2022-11-10T12:54:16.867Z,14.53
2022-11-10T12:56:44.243Z,12.07
2022-11-10T12:59:20.638Z,10.23
2022-11-10T13:01:48.279Z,11.03
2022-11-10T13:04:15.749Z,10.83
2022-11-10T13:06:58.440Z,10.83
2022-11-10T13:09:25.931Z,12.03
2022-11-10T13:12:05.232Z,13.43
2022-11-10T13:14:32.770Z,7.90
2022-11-10T13:17:00.292Z,9.03
2022-11-10T13:19:30.558Z,11.03
2022-11-10T13:22:01.049Z,10.00
2022-11-10T13:24:31.190Z,9.57
2022-11-10T13:27:01.421Z,8.60
2022-11-10T13:29:43.989Z,8.00
2022-11-10T13:32:14.307Z,9.03
2022-11-10T13:34:47.691Z,10.85
2022-11-10T13:37:30.321Z,9.57
2022-11-10T13:40:25.674Z,5.73
2022-11-10T13:42:59.197Z,8.10
2022-11-10T13:45:38.349Z,9.30
2022-11-10T13:48:11.578Z,7.27
2022-11-10T13:51:07.032Z,8.23
2022-11-10T13:53:55.342Z,5.60
2022-11-10T13:56:32.067Z,5.87
2022-11-10T13:58:59.598Z,7.57
2022-11-10T14:01:27.173Z,10.40
2022-11-10T14:03:54.813Z,5.87
2022-11-10T14:06:24.948Z,11.43
2022-11-10T14:09:22.732Z,11.47
2022-11-10T14:11:50.620Z,8.80
2022-11-10T14:14:26.378Z,6.43
2022-11-10T14:16:53.981Z,5.37
2022-11-10T14:19:24.471Z,5.07
2022-11-10T14:21:58.424Z,11.40
2022-11-10T14:24:32.104Z,7.30
2022-11-10T14:27:00.396Z,9.43
2022-11-10T14:29:30.619Z,11.60
2022-11-10T14:31:58.175Z,6.83
2022-11-10T14:34:25.696Z,7.43
2022-11-10T14:36:59.298Z,7.03
2022-11-10T14:39:29.965Z,6.53
2022-11-10T14:41:57.528Z,5.87
2022-11-10T14:44:25.830Z,7.40
2022-11-10T14:46:53.355Z,3.77
2022-11-10T14:49:23.930Z,6.23
2022-11-10T14:51:51.525Z,5.03
2022-11-10T14:54:19.810Z,7.57
2022-11-10T14:56:48.139Z,7.40
2022-11-10T14:59:15.694Z,8.00
2022-11-10T15:01:43.220Z,19.43
2022-11-10T15:04:10.794Z,11.70
2022-11-10T15:06:43.092Z,9.43
2022-11-10T15:09:14.842Z,7.97
2022-11-10T15:11:48.782Z,8.37
2022-11-10T15:14:40.569Z,5.70
2022-11-10T15:17:08.148Z,6.73
2022-11-10T15:19:47.160Z,5.67
2022-11-10T15:22:14.762Z,8.30
2022-11-10T15:24:43.065Z,7.80
2022-11-10T15:27:22.659Z,8.37
2022-11-10T15:29:50.190Z,5.70
2022-11-10T15:32:17.722Z,7.33
2022-11-10T15:34:45.314Z,7.40
2022-11-10T15:37:30.219Z,8.43
2022-11-10T15:39:52.785Z,6.17
2022-11-10T15:42:23.997Z,4.07
2022-11-10T15:44:51.491Z,8.70
2022-11-10T15:47:19.106Z,7.97
2022-11-10T15:49:46.649Z,6.33
2022-11-10T15:52:20.408Z,5.20
2022-11-10T15:54:47.972Z,8.07
2022-11-10T15:57:15.555Z,9.27
2022-11-10T15:59:43.818Z,6.10
2022-11-10T16:02:20.216Z,8.90
2022-11-10T16:04:47.750Z,8.27
2022-11-10T16:07:15.307Z,7.73
2022-11-10T16:09:44.089Z,10.67
2022-11-10T16:12:14.126Z,7.47
2022-11-10T16:14:41.650Z,7.55
2022-11-10T16:17:10.015Z,9.50
2022-11-10T16:19:37.536Z,12.03
2022-11-10T16:22:05.082Z,10.43
2022-11-10T16:24:32.681Z,13.98
2022-11-10T16:27:00.211Z,11.23
2022-11-10T16:29:27.759Z,13.20
2022-11-10T16:31:55.354Z,17.73
2022-11-10T16:34:22.896Z,12.67
2022-11-10T16:36:50.448Z,16.90
2022-11-10T16:39:18.031Z,17.77
2022-11-10T16:41:45.586Z,13.53
2022-11-10T16:44:13.148Z,17.17
2022-11-10T16:46:40.755Z,16.50
2022-11-10T16:49:08.282Z,14.17
2022-11-10T16:51:42.935Z,19.20
2022-11-10T16:54:08.372Z,16.23
2022-11-10T16:56:35.918Z,15.00
2022-11-10T16:59:03.461Z,19.43
2022-11-10T17:01:31.081Z,12.20
2022-11-10T17:03:58.620Z,15.13
2022-11-10T17:06:26.134Z,14.33
2022-11-10T17:08:53.727Z,15.87
2022-11-10T17:11:21.262Z,16.35
2022-11-10T17:13:48.786Z,13.33
2022-11-10T17:16:29.398Z,17.90
2022-11-10T17:18:56.942Z,17.80
2022-11-10T17:21:28.529Z,15.40
2022-11-10T17:23:52.830Z,19.13
2022-11-10T17:26:20.375Z,22.00
2022-11-10T17:28:47.928Z,18.02
2022-11-10T17:31:15.513Z,18.95
2022-11-10T17:33:43.057Z,17.77
2022-11-10T17:36:13.261Z,23.67
2022-11-10T17:38:40.814Z,19.50
2022-11-10T17:41:08.339Z,16.73
2022-11-10T17:43:35.873Z,16.23
2022-11-10T17:46:03.446Z,17.83
2022-11-10T17:48:31.771Z,24.42
2022-11-10T17:50:59.295Z,15.77
2022-11-10T17:53:27.769Z,18.50
2022-11-10T17:55:55.192Z,16.77
2022-11-10T17:58:22.765Z,14.83
2022-11-10T18:00:50.330Z,14.77
2022-11-10T18:03:18.621Z,15.43
2022-11-10T18:05:46.941Z,19.50
2022-11-10T18:08:15.112Z,17.70
2022-11-10T18:10:51.440Z,16.87
2022-11-10T18:13:19.012Z,19.63
2022-11-10T18:15:46.579Z,24.33
2022-11-10T18:18:14.107Z,18.60
2022-11-10T18:20:42.406Z,18.53
2022-11-10T18:23:10.578Z,19.67
2022-11-10T18:25:40.849Z,17.47
2022-11-10T18:28:08.365Z,17.50
2022-11-10T18:30:35.953Z,19.87
2022-11-10T18:33:03.504Z,18.03
2022-11-10T18:35:31.060Z,24.07
2022-11-10T18:37:58.637Z,21.53
2022-11-10T18:40:26.169Z,22.23
2022-11-10T18:43:04.484Z,23.80
2022-11-10T18:45:26.840Z,21.67
2022-11-10T18:47:54.372Z,20.27
2022-11-10T18:50:21.898Z,20.20
2022-11-10T18:52:50.242Z,24.23
2022-11-10T18:55:17.797Z,23.83
2022-11-10T18:57:45.319Z,19.47
2022-11-10T19:00:13.053Z,20.40
2022-11-10T19:02:41.345Z,20.93
2022-11-10T19:05:09.036Z,25.03
2022-11-10T19:07:36.650Z,19.93
2022-11-10T19:10:04.195Z,22.30
2022-11-10T19:12:31.730Z,30.50
2022-11-10T19:14:59.325Z,24.53
2022-11-10T19:17:27.637Z,27.55
2022-11-10T19:19:56.848Z,30.03
2022-11-10T19:22:23.229Z,29.37
2022-11-10T19:25:07.721Z,21.42
2022-11-10T19:27:19.197Z,21.07
2022-11-10T19:29:47.399Z,19.90
2022-11-10T19:32:14.943Z,16.40
2022-11-10T19:34:42.483Z,19.53
2022-11-10T19:37:10.832Z,24.00
2022-11-10T19:39:38.390Z,22.60
2022-11-10T19:42:05.912Z,22.07
2022-11-10T19:44:34.079Z,25.20
2022-11-10T19:47:01.622Z,21.27
2022-11-10T19:49:29.177Z,21.63
2022-11-10T19:51:56.761Z,19.33
2022-11-10T19:54:24.324Z,22.27
2022-11-10T19:56:51.881Z,22.77
2022-11-10T19:59:19.847Z,20.60
2022-11-10T20:01:47.450Z,23.07
2022-11-10T20:04:14.928Z,19.43
2022-11-10T20:06:43.326Z,22.73
2022-11-10T20:09:11.601Z,21.13
2022-11-10T20:11:39.128Z,23.00
2022-11-10T20:14:07.469Z,20.50
2022-11-10T20:16:35.004Z,22.60
2022-11-10T20:19:02.538Z,27.33
2022-11-10T20:21:30.122Z,23.03
2022-11-10T20:23:57.658Z,21.93
2022-11-10T20:26:25.980Z,26.73
2022-11-10T20:28:53.561Z,23.20
2022-11-10T20:31:21.114Z,27.10
2022-11-10T20:33:48.641Z,20.50
2022-11-10T20:36:20.311Z,32.20
2022-11-10T20:38:43.790Z,29.73
2022-11-10T20:41:13.775Z,23.83
2022-11-10T20:43:41.342Z,27.90
2022-11-10T20:46:13.626Z,26.33
2022-11-10T20:48:37.751Z,25.73
2022-11-10T20:51:11.192Z,30.37
2022-11-10T20:53:38.717Z,25.93
2022-11-10T20:56:06.252Z,30.57
2022-11-10T20:58:34.594Z,32.00
2022-11-10T21:01:02.138Z,29.43
2022-11-10T21:03:29.733Z,28.70
2022-11-10T21:05:58.381Z,31.87
2022-11-10T21:08:25.925Z,35.70
2022-11-10T21:10:53.459Z,28.80
2022-11-10T21:13:22.142Z,33.37
2022-11-10T21:15:49.374Z,34.17
2022-11-10T21:18:16.926Z,32.60
2022-11-10T21:20:44.839Z,39.63
2022-11-10T21:23:12.383Z,28.73
2022-11-10T21:25:40.725Z,33.13
2022-11-10T21:28:08.546Z,34.93
2022-11-10T21:30:36.080Z,26.97
2022-11-10T21:33:04.391Z,32.43
2022-11-10T21:35:37.716Z,32.47
2022-11-10T21:37:59.788Z,31.97
2022-11-10T21:40:28.103Z,36.37
2022-11-10T21:42:55.714Z,35.53
2022-11-10T21:45:23.237Z,34.20
2022-11-10T21:47:50.782Z,33.00
2022-11-10T21:50:18.427Z,35.13
2022-11-10T21:52:46.698Z,32.87
2022-11-10T21:55:14.233Z,39.53
2022-11-10T21:57:42.575Z,32.20
2022-11-10T22:00:10.404Z,31.30
2022-11-10T22:02:37.959Z,37.83
2022-11-10T22:05:05.524Z,34.73
2022-11-10T22:07:33.079Z,30.10
2022-11-10T22:10:18.962Z,32.10
2022-11-10T22:13:04.368Z,31.17
2022-11-10T22:15:50.089Z,27.97
2022-11-10T22:18:36.813Z,29.87
2022-11-10T22:21:05.161Z,29.03
2022-11-10T22:23:50.927Z,27.30
2022-11-10T22:26:18.508Z,27.20
2022-11-10T22:28:46.044Z,30.47
2022-11-10T22:31:13.597Z,26.13
2022-11-10T22:33:41.163Z,31.90
2022-11-10T22:36:11.199Z,34.07
2022-11-10T22:38:38.742Z,30.10
2022-11-10T22:41:24.404Z,31.63
2022-11-10T22:43:57.816Z,35.27
2022-11-10T22:46:25.350Z,32.90
2022-11-10T22:48:53.043Z,36.35
2022-11-10T22:51:20.569Z,33.17
2022-11-10T22:53:48.124Z,30.80
2022-11-10T22:56:16.498Z,34.60
2022-11-10T22:58:44.807Z,27.80
2022-11-10T23:01:12.403Z,28.30
2022-11-10T23:03:39.944Z,30.27
2022-11-10T23:06:07.481Z,26.23
2022-11-10T23:08:35.035Z,32.15
2022-11-10T23:11:08.525Z,27.40
2022-11-10T23:13:36.089Z,26.73
2022-11-10T23:16:06.274Z,33.50
2022-11-10T23:18:34.596Z,31.23
2022-11-10T23:21:02.942Z,35.23
2022-11-10T23:23:33.907Z,34.27
2022-11-10T23:26:01.505Z,40.47
2022-11-10T23:28:29.032Z,30.90
2022-11-10T23:31:11.607Z,36.03
2022-11-10T23:33:39.155Z,31.23
2022-11-10T23:36:07.582Z,27.63
2022-11-10T23:38:35.176Z,28.70
2022-11-10T23:41:02.720Z,28.33
2022-11-10T23:43:30.278Z,28.80
2022-11-10T23:46:06.793Z,27.67
2022-11-10T23:48:25.806Z,28.70
2022-11-10T23:50:53.213Z,28.57
2022-11-10T23:53:20.962Z,30.30
2022-11-10T23:55:48.330Z,22.73
2022-11-10T23:58:15.876Z,23.17
